sensor_id;sensor_type;location;lat;lon;timestamp;P1;durP1;ratioP1;P2;durP2;ratioP2
67065;SDS011;53978;43.846;25.952;2023-01-30T00:01:40;5.05;;;2.42;;
67065;SDS011;53978;43.846;25.952;2023-01-30T00:04:07;6.45;;;2.85;;
67065;SDS011;53978;43.846;25.952;2023-01-30T00:06:33;7.20;;;2.63;;
67065;SDS011;53978;43.846;25.952;2023-01-30T00:08:59;4.38;;;2.53;;
67065;SDS011;53978;43.846;25.952;2023-01-30T00:11:24;4.72;;;2.78;;
67065;SDS011;53978;43.846;25.952;2023-01-30T00:13:50;5.45;;;2.50;;
67065;SDS011;53978;43.846;25.952;2023-01-30T00:16:17;6.80;;;2.75;;
67065;SDS011;53978;43.846;25.952;2023-01-30T00:18:42;3.95;;;2.67;;
67065;SDS011;53978;43.846;25.952;2023-01-30T00:21:09;5.50;;;2.47;;
67065;SDS011;53978;43.846;25.952;2023-01-30T00:23:36;4.55;;;2.38;;
67065;SDS011;53978;43.846;25.952;2023-01-30T00:26:02;4.65;;;2.25;;
67065;SDS011;53978;43.846;25.952;2023-01-30T00:28:28;4.03;;;2.13;;
67065;SDS011;53978;43.846;25.952;2023-01-30T00:30:54;2.78;;;1.90;;
67065;SDS011;53978;43.846;25.952;2023-01-30T00:33:20;6.68;;;2.88;;
67065;SDS011;53978;43.846;25.952;2023-01-30T00:35:46;4.85;;;2.72;;
67065;SDS011;53978;43.846;25.952;2023-01-30T00:38:13;3.47;;;2.33;;
67065;SDS011;53978;43.846;25.952;2023-01-30T00:40:39;3.17;;;2.13;;
67065;SDS011;53978;43.846;25.952;2023-01-30T00:43:04;4.45;;;2.33;;
67065;SDS011;53978;43.846;25.952;2023-01-30T00:45:48;3.80;;;2.47;;
67065;SDS011;53978;43.846;25.952;2023-01-30T00:48:39;4.32;;;2.63;;
67065;SDS011;53978;43.846;25.952;2023-01-30T00:51:04;3.60;;;1.98;;
67065;SDS011;53978;43.846;25.952;2023-01-30T00:53:30;2.97;;;2.20;;
67065;SDS011;53978;43.846;25.952;2023-01-30T00:55:55;3.22;;;1.92;;
67065;SDS011;53978;43.846;25.952;2023-01-30T00:58:21;3.28;;;2.35;;
67065;SDS011;53978;43.846;25.952;2023-01-30T01:00:47;3.75;;;2.33;;
67065;SDS011;53978;43.846;25.952;2023-01-30T01:03:13;3.45;;;2.15;;
67065;SDS011;53978;43.846;25.952;2023-01-30T01:05:38;4.68;;;2.58;;
67065;SDS011;53978;43.846;25.952;2023-01-30T01:08:04;3.58;;;2.35;;
67065;SDS011;53978;43.846;25.952;2023-01-30T01:10:30;5.03;;;2.53;;
67065;SDS011;53978;43.846;25.952;2023-01-30T01:12:56;2.40;;;1.80;;
67065;SDS011;53978;43.846;25.952;2023-01-30T01:15:24;3.65;;;2.30;;
67065;SDS011;53978;43.846;25.952;2023-01-30T01:17:50;3.00;;;2.00;;
67065;SDS011;53978;43.846;25.952;2023-01-30T01:20:16;4.00;;;2.13;;
67065;SDS011;53978;43.846;25.952;2023-01-30T01:22:42;5.65;;;2.63;;
67065;SDS011;53978;43.846;25.952;2023-01-30T01:25:08;7.18;;;2.70;;
67065;SDS011;53978;43.846;25.952;2023-01-30T01:27:34;2.70;;;1.95;;
67065;SDS011;53978;43.846;25.952;2023-01-30T01:30:00;3.92;;;2.28;;
67065;SDS011;53978;43.846;25.952;2023-01-30T01:32:26;4.95;;;2.75;;
67065;SDS011;53978;43.846;25.952;2023-01-30T01:34:51;3.97;;;2.22;;
67065;SDS011;53978;43.846;25.952;2023-01-30T01:37:16;3.13;;;2.25;;
67065;SDS011;53978;43.846;25.952;2023-01-30T01:39:42;4.07;;;2.58;;
67065;SDS011;53978;43.846;25.952;2023-01-30T01:42:28;3.55;;;2.13;;
67065;SDS011;53978;43.846;25.952;2023-01-30T01:50:31;3.60;;;2.70;;
67065;SDS011;53978;43.846;25.952;2023-01-30T01:53:04;3.10;;;2.42;;
67065;SDS011;53978;43.846;25.952;2023-01-30T01:55:30;4.03;;;2.67;;
67065;SDS011;53978;43.846;25.952;2023-01-30T01:57:57;5.30;;;2.40;;
67065;SDS011;53978;43.846;25.952;2023-01-30T02:00:29;3.90;;;2.55;;
67065;SDS011;53978;43.846;25.952;2023-01-30T02:02:56;3.83;;;2.38;;
67065;SDS011;53978;43.846;25.952;2023-01-30T02:05:24;6.32;;;3.55;;
67065;SDS011;53978;43.846;25.952;2023-01-30T02:13:31;5.03;;;2.92;;
67065;SDS011;53978;43.846;25.952;2023-01-30T02:15:57;6.63;;;3.60;;
67065;SDS011;53978;43.846;25.952;2023-01-30T02:18:24;6.78;;;3.35;;
67065;SDS011;53978;43.846;25.952;2023-01-30T02:24:03;4.85;;;3.22;;
67065;SDS011;53978;43.846;25.952;2023-01-30T02:32:04;5.22;;;3.85;;
67065;SDS011;53978;43.846;25.952;2023-01-30T02:42:36;11.57;;;4.57;;
67065;SDS011;53978;43.846;25.952;2023-01-30T02:45:06;10.52;;;4.45;;
67065;SDS011;53978;43.846;25.952;2023-01-30T02:50:45;8.18;;;4.63;;
67065;SDS011;53978;43.846;25.952;2023-01-30T02:53:05;9.02;;;4.65;;
67065;SDS011;53978;43.846;25.952;2023-01-30T02:55:30;11.32;;;4.53;;
67065;SDS011;53978;43.846;25.952;2023-01-30T02:57:56;10.50;;;4.72;;
67065;SDS011;53978;43.846;25.952;2023-01-30T03:00:23;12.27;;;4.70;;
67065;SDS011;53978;43.846;25.952;2023-01-30T03:03:20;7.05;;;4.22;;
67065;SDS011;53978;43.846;25.952;2023-01-30T03:06:07;7.47;;;3.90;;
67065;SDS011;53978;43.846;25.952;2023-01-30T03:11:23;7.88;;;4.07;;
67065;SDS011;53978;43.846;25.952;2023-01-30T03:14:10;7.70;;;4.00;;
67065;SDS011;53978;43.846;25.952;2023-01-30T03:16:42;7.07;;;3.88;;
67065;SDS011;53978;43.846;25.952;2023-01-30T03:19:09;7.40;;;4.30;;
67065;SDS011;53978;43.846;25.952;2023-01-30T03:21:42;6.80;;;4.00;;
67065;SDS011;53978;43.846;25.952;2023-01-30T03:24:08;9.65;;;3.47;;
67065;SDS011;53978;43.846;25.952;2023-01-30T03:26:34;6.82;;;3.72;;
67065;SDS011;53978;43.846;25.952;2023-01-30T03:29:05;7.55;;;4.00;;
67065;SDS011;53978;43.846;25.952;2023-01-30T03:31:31;8.60;;;4.40;;
67065;SDS011;53978;43.846;25.952;2023-01-30T03:33:57;6.97;;;4.05;;
67065;SDS011;53978;43.846;25.952;2023-01-30T03:36:22;5.05;;;3.38;;
67065;SDS011;53978;43.846;25.952;2023-01-30T03:38:47;8.00;;;3.90;;
67065;SDS011;53978;43.846;25.952;2023-01-30T03:41:15;9.30;;;3.97;;
67065;SDS011;53978;43.846;25.952;2023-01-30T03:43:41;5.90;;;3.60;;
67065;SDS011;53978;43.846;25.952;2023-01-30T03:46:06;7.57;;;4.05;;
67065;SDS011;53978;43.846;25.952;2023-01-30T03:48:32;12.35;;;4.53;;
67065;SDS011;53978;43.846;25.952;2023-01-30T03:50:57;7.65;;;4.15;;
67065;SDS011;53978;43.846;25.952;2023-01-30T03:53:23;8.10;;;3.85;;
67065;SDS011;53978;43.846;25.952;2023-01-30T03:55:48;6.65;;;3.70;;
67065;SDS011;53978;43.846;25.952;2023-01-30T03:58:14;11.80;;;4.25;;
67065;SDS011;53978;43.846;25.952;2023-01-30T04:00:39;9.25;;;3.90;;
67065;SDS011;53978;43.846;25.952;2023-01-30T04:03:04;9.52;;;4.05;;
67065;SDS011;53978;43.846;25.952;2023-01-30T04:05:30;11.48;;;4.05;;
67065;SDS011;53978;43.846;25.952;2023-01-30T04:07:55;10.35;;;4.10;;
67065;SDS011;53978;43.846;25.952;2023-01-30T04:10:21;10.60;;;4.50;;
67065;SDS011;53978;43.846;25.952;2023-01-30T04:12:47;10.32;;;3.97;;
67065;SDS011;53978;43.846;25.952;2023-01-30T04:15:15;8.73;;;4.47;;
67065;SDS011;53978;43.846;25.952;2023-01-30T04:17:41;7.82;;;3.75;;
67065;SDS011;53978;43.846;25.952;2023-01-30T04:20:07;10.43;;;4.65;;
67065;SDS011;53978;43.846;25.952;2023-01-30T04:22:33;9.77;;;3.85;;
67065;SDS011;53978;43.846;25.952;2023-01-30T04:24:58;9.48;;;4.53;;
67065;SDS011;53978;43.846;25.952;2023-01-30T04:27:24;5.45;;;3.63;;
67065;SDS011;53978;43.846;25.952;2023-01-30T04:29:49;9.40;;;4.15;;
67065;SDS011;53978;43.846;25.952;2023-01-30T04:32:15;8.48;;;4.10;;
67065;SDS011;53978;43.846;25.952;2023-01-30T04:34:40;9.60;;;4.10;;
67065;SDS011;53978;43.846;25.952;2023-01-30T04:37:07;10.55;;;4.22;;
67065;SDS011;53978;43.846;25.952;2023-01-30T04:39:33;7.43;;;4.18;;
67065;SDS011;53978;43.846;25.952;2023-01-30T04:41:58;7.30;;;4.20;;
67065;SDS011;53978;43.846;25.952;2023-01-30T04:44:24;8.75;;;3.88;;
67065;SDS011;53978;43.846;25.952;2023-01-30T04:46:49;13.30;;;4.18;;
67065;SDS011;53978;43.846;25.952;2023-01-30T04:49:14;7.28;;;4.03;;
67065;SDS011;53978;43.846;25.952;2023-01-30T04:51:40;7.25;;;3.63;;
67065;SDS011;53978;43.846;25.952;2023-01-30T04:54:05;7.55;;;3.85;;
67065;SDS011;53978;43.846;25.952;2023-01-30T04:56:31;7.97;;;4.15;;
67065;SDS011;53978;43.846;25.952;2023-01-30T04:58:56;13.07;;;4.90;;
67065;SDS011;53978;43.846;25.952;2023-01-30T05:01:23;8.82;;;4.40;;
67065;SDS011;53978;43.846;25.952;2023-01-30T05:03:52;8.95;;;4.32;;
67065;SDS011;53978;43.846;25.952;2023-01-30T05:06:19;9.57;;;4.78;;
67065;SDS011;53978;43.846;25.952;2023-01-30T05:08:48;14.50;;;5.50;;
67065;SDS011;53978;43.846;25.952;2023-01-30T05:11:14;11.48;;;6.00;;
67065;SDS011;53978;43.846;25.952;2023-01-30T05:13:40;16.05;;;6.90;;
67065;SDS011;53978;43.846;25.952;2023-01-30T05:16:06;13.80;;;7.53;;
67065;SDS011;53978;43.846;25.952;2023-01-30T05:18:33;13.55;;;7.47;;
67065;SDS011;53978;43.846;25.952;2023-01-30T05:21:32;13.25;;;7.03;;
67065;SDS011;53978;43.846;25.952;2023-01-30T05:23:54;11.63;;;6.57;;
67065;SDS011;53978;43.846;25.952;2023-01-30T05:26:20;10.80;;;5.85;;
67065;SDS011;53978;43.846;25.952;2023-01-30T05:28:53;12.98;;;6.38;;
67065;SDS011;53978;43.846;25.952;2023-01-30T05:31:19;12.63;;;6.13;;
67065;SDS011;53978;43.846;25.952;2023-01-30T05:33:45;12.95;;;6.32;;
67065;SDS011;53978;43.846;25.952;2023-01-30T05:36:13;10.82;;;5.60;;
67065;SDS011;53978;43.846;25.952;2023-01-30T05:38:41;10.48;;;5.55;;
67065;SDS011;53978;43.846;25.952;2023-01-30T05:41:08;11.45;;;6.03;;
67065;SDS011;53978;43.846;25.952;2023-01-30T05:43:34;11.90;;;5.88;;
67065;SDS011;53978;43.846;25.952;2023-01-30T05:46:02;11.10;;;5.93;;
67065;SDS011;53978;43.846;25.952;2023-01-30T05:48:31;9.82;;;5.93;;
67065;SDS011;53978;43.846;25.952;2023-01-30T05:50:57;11.27;;;5.70;;
67065;SDS011;53978;43.846;25.952;2023-01-30T05:53:24;12.82;;;6.18;;
67065;SDS011;53978;43.846;25.952;2023-01-30T05:55:55;11.88;;;6.43;;
67065;SDS011;53978;43.846;25.952;2023-01-30T05:58:24;19.67;;;7.40;;
67065;SDS011;53978;43.846;25.952;2023-01-30T06:00:50;13.18;;;7.18;;
67065;SDS011;53978;43.846;25.952;2023-01-30T06:03:15;18.42;;;7.53;;
67065;SDS011;53978;43.846;25.952;2023-01-30T06:05:41;23.80;;;9.95;;
67065;SDS011;53978;43.846;25.952;2023-01-30T06:08:06;18.88;;;9.02;;
67065;SDS011;53978;43.846;25.952;2023-01-30T06:10:32;20.83;;;8.65;;
67065;SDS011;53978;43.846;25.952;2023-01-30T06:12:58;18.30;;;9.55;;
67065;SDS011;53978;43.846;25.952;2023-01-30T06:15:24;23.63;;;11.07;;
67065;SDS011;53978;43.846;25.952;2023-01-30T06:17:49;23.98;;;11.80;;
67065;SDS011;53978;43.846;25.952;2023-01-30T06:20:14;16.05;;;7.82;;
67065;SDS011;53978;43.846;25.952;2023-01-30T06:22:40;12.48;;;6.90;;
67065;SDS011;53978;43.846;25.952;2023-01-30T06:25:05;16.25;;;7.05;;
67065;SDS011;53978;43.846;25.952;2023-01-30T06:27:31;18.80;;;8.63;;
67065;SDS011;53978;43.846;25.952;2023-01-30T06:29:56;16.67;;;6.93;;
67065;SDS011;53978;43.846;25.952;2023-01-30T06:32:22;13.57;;;7.32;;
67065;SDS011;53978;43.846;25.952;2023-01-30T06:34:47;19.77;;;8.63;;
67065;SDS011;53978;43.846;25.952;2023-01-30T06:37:13;14.18;;;7.65;;
67065;SDS011;53978;43.846;25.952;2023-01-30T06:39:38;13.27;;;7.10;;
67065;SDS011;53978;43.846;25.952;2023-01-30T06:42:04;14.35;;;7.38;;
67065;SDS011;53978;43.846;25.952;2023-01-30T06:44:29;11.85;;;6.53;;
67065;SDS011;53978;43.846;25.952;2023-01-30T06:46:55;13.13;;;5.50;;
67065;SDS011;53978;43.846;25.952;2023-01-30T06:49:20;14.02;;;7.45;;
67065;SDS011;53978;43.846;25.952;2023-01-30T06:51:45;15.10;;;7.18;;
67065;SDS011;53978;43.846;25.952;2023-01-30T06:54:11;12.05;;;7.35;;
67065;SDS011;53978;43.846;25.952;2023-01-30T06:56:36;14.10;;;6.80;;
67065;SDS011;53978;43.846;25.952;2023-01-30T06:59:02;16.20;;;7.35;;
67065;SDS011;53978;43.846;25.952;2023-01-30T07:01:27;12.45;;;5.78;;
67065;SDS011;53978;43.846;25.952;2023-01-30T07:03:52;7.90;;;4.70;;
67065;SDS011;53978;43.846;25.952;2023-01-30T07:06:18;12.07;;;5.90;;
67065;SDS011;53978;43.846;25.952;2023-01-30T07:08:44;9.23;;;5.05;;
67065;SDS011;53978;43.846;25.952;2023-01-30T07:11:09;9.50;;;5.00;;
67065;SDS011;53978;43.846;25.952;2023-01-30T07:13:34;12.85;;;5.90;;
67065;SDS011;53978;43.846;25.952;2023-01-30T07:16:00;11.40;;;6.85;;
67065;SDS011;53978;43.846;25.952;2023-01-30T07:18:25;20.70;;;8.05;;
67065;SDS011;53978;43.846;25.952;2023-01-30T07:20:51;15.13;;;6.55;;
67065;SDS011;53978;43.846;25.952;2023-01-30T07:23:16;12.18;;;5.18;;
67065;SDS011;53978;43.846;25.952;2023-01-30T07:25:42;9.20;;;5.28;;
67065;SDS011;53978;43.846;25.952;2023-01-30T07:28:07;8.90;;;4.80;;
67065;SDS011;53978;43.846;25.952;2023-01-30T07:30:33;7.18;;;4.03;;
67065;SDS011;53978;43.846;25.952;2023-01-30T07:33:00;12.00;;;5.97;;
67065;SDS011;53978;43.846;25.952;2023-01-30T07:35:27;12.52;;;6.28;;
67065;SDS011;53978;43.846;25.952;2023-01-30T07:37:55;9.52;;;5.07;;
67065;SDS011;53978;43.846;25.952;2023-01-30T07:40:21;10.02;;;5.07;;
67065;SDS011;53978;43.846;25.952;2023-01-30T07:42:54;10.90;;;5.25;;
67065;SDS011;53978;43.846;25.952;2023-01-30T07:45:20;6.47;;;4.10;;
67065;SDS011;53978;43.846;25.952;2023-01-30T07:47:45;9.82;;;4.90;;
67065;SDS011;53978;43.846;25.952;2023-01-30T07:50:11;7.78;;;3.97;;
67065;SDS011;53978;43.846;25.952;2023-01-30T07:52:37;6.25;;;3.53;;
67065;SDS011;53978;43.846;25.952;2023-01-30T07:55:02;7.82;;;4.85;;
67065;SDS011;53978;43.846;25.952;2023-01-30T07:57:28;5.80;;;3.85;;
67065;SDS011;53978;43.846;25.952;2023-01-30T07:59:53;8.68;;;4.63;;
67065;SDS011;53978;43.846;25.952;2023-01-30T08:02:19;7.80;;;4.38;;
67065;SDS011;53978;43.846;25.952;2023-01-30T08:04:44;6.40;;;3.42;;
67065;SDS011;53978;43.846;25.952;2023-01-30T08:07:10;9.18;;;4.53;;
67065;SDS011;53978;43.846;25.952;2023-01-30T08:09:35;6.50;;;4.00;;
67065;SDS011;53978;43.846;25.952;2023-01-30T08:12:00;11.52;;;4.82;;
67065;SDS011;53978;43.846;25.952;2023-01-30T08:14:29;6.75;;;4.32;;
67065;SDS011;53978;43.846;25.952;2023-01-30T08:16:57;10.15;;;4.88;;
67065;SDS011;53978;43.846;25.952;2023-01-30T08:19:25;7.40;;;4.30;;
67065;SDS011;53978;43.846;25.952;2023-01-30T08:21:52;9.05;;;4.20;;
67065;SDS011;53978;43.846;25.952;2023-01-30T08:24:18;10.82;;;5.75;;
67065;SDS011;53978;43.846;25.952;2023-01-30T08:26:43;11.27;;;5.75;;
67065;SDS011;53978;43.846;25.952;2023-01-30T08:29:14;14.73;;;6.15;;
67065;SDS011;53978;43.846;25.952;2023-01-30T08:31:40;11.18;;;5.95;;
67065;SDS011;53978;43.846;25.952;2023-01-30T08:34:05;9.18;;;5.40;;
67065;SDS011;53978;43.846;25.952;2023-01-30T08:36:31;8.40;;;4.45;;
67065;SDS011;53978;43.846;25.952;2023-01-30T08:38:56;10.05;;;4.63;;
67065;SDS011;53978;43.846;25.952;2023-01-30T08:41:22;9.25;;;5.18;;
67065;SDS011;53978;43.846;25.952;2023-01-30T08:43:47;13.95;;;5.18;;
67065;SDS011;53978;43.846;25.952;2023-01-30T08:46:12;8.52;;;4.20;;
67065;SDS011;53978;43.846;25.952;2023-01-30T08:48:38;8.40;;;4.50;;
67065;SDS011;53978;43.846;25.952;2023-01-30T08:51:05;8.88;;;4.35;;
67065;SDS011;53978;43.846;25.952;2023-01-30T08:53:30;8.60;;;4.55;;
67065;SDS011;53978;43.846;25.952;2023-01-30T08:55:56;8.27;;;4.22;;
67065;SDS011;53978;43.846;25.952;2023-01-30T08:58:21;10.27;;;5.20;;
67065;SDS011;53978;43.846;25.952;2023-01-30T09:00:47;8.48;;;4.80;;
67065;SDS011;53978;43.846;25.952;2023-01-30T09:03:14;9.15;;;4.60;;
67065;SDS011;53978;43.846;25.952;2023-01-30T09:05:40;7.70;;;4.13;;
67065;SDS011;53978;43.846;25.952;2023-01-30T09:08:06;10.00;;;3.95;;
67065;SDS011;53978;43.846;25.952;2023-01-30T09:10:33;7.10;;;4.03;;
67065;SDS011;53978;43.846;25.952;2023-01-30T09:12:59;8.32;;;4.80;;
67065;SDS011;53978;43.846;25.952;2023-01-30T09:15:25;8.65;;;3.95;;
67065;SDS011;53978;43.846;25.952;2023-01-30T09:17:50;9.27;;;4.40;;
67065;SDS011;53978;43.846;25.952;2023-01-30T09:20:16;11.43;;;4.97;;
67065;SDS011;53978;43.846;25.952;2023-01-30T09:22:44;10.75;;;4.68;;
67065;SDS011;53978;43.846;25.952;2023-01-30T09:25:10;8.00;;;4.43;;
67065;SDS011;53978;43.846;25.952;2023-01-30T09:27:36;8.85;;;4.57;;
67065;SDS011;53978;43.846;25.952;2023-01-30T09:30:02;9.52;;;4.68;;
67065;SDS011;53978;43.846;25.952;2023-01-30T09:32:30;10.30;;;4.93;;
67065;SDS011;53978;43.846;25.952;2023-01-30T09:34:56;12.70;;;5.20;;
67065;SDS011;53978;43.846;25.952;2023-01-30T09:37:21;10.15;;;5.13;;
67065;SDS011;53978;43.846;25.952;2023-01-30T09:39:46;9.63;;;4.70;;
67065;SDS011;53978;43.846;25.952;2023-01-30T09:53:09;10.18;;;4.50;;
67065;SDS011;53978;43.846;25.952;2023-01-30T09:55:42;10.48;;;4.60;;
67065;SDS011;53978;43.846;25.952;2023-01-30T09:58:16;8.02;;;4.25;;
67065;SDS011;53978;43.846;25.952;2023-01-30T10:00:43;5.88;;;3.22;;
67065;SDS011;53978;43.846;25.952;2023-01-30T10:03:12;9.30;;;4.85;;
67065;SDS011;53978;43.846;25.952;2023-01-30T10:05:51;6.50;;;3.85;;
67065;SDS011;53978;43.846;25.952;2023-01-30T10:19:27;6.63;;;3.42;;
67065;SDS011;53978;43.846;25.952;2023-01-30T10:21:59;5.22;;;3.38;;
67065;SDS011;53978;43.846;25.952;2023-01-30T10:26:58;11.27;;;4.07;;
67065;SDS011;53978;43.846;25.952;2023-01-30T10:32:00;8.18;;;3.85;;
67065;SDS011;53978;43.846;25.952;2023-01-30T10:34:36;7.82;;;3.95;;
67065;SDS011;53978;43.846;25.952;2023-01-30T10:42:38;8.45;;;3.80;;
67065;SDS011;53978;43.846;25.952;2023-01-30T10:45:16;7.60;;;4.22;;
67065;SDS011;53978;43.846;25.952;2023-01-30T10:50:41;6.65;;;3.20;;
67065;SDS011;53978;43.846;25.952;2023-01-30T10:53:19;6.97;;;3.58;;
67065;SDS011;53978;43.846;25.952;2023-01-30T10:55:47;8.43;;;3.78;;
67065;SDS011;53978;43.846;25.952;2023-01-30T10:58:31;6.10;;;3.65;;
67065;SDS011;53978;43.846;25.952;2023-01-30T11:01:04;7.65;;;3.78;;
67065;SDS011;53978;43.846;25.952;2023-01-30T11:06:07;5.72;;;3.60;;
67065;SDS011;53978;43.846;25.952;2023-01-30T11:08:36;5.72;;;3.67;;
67065;SDS011;53978;43.846;25.952;2023-01-30T11:13:59;8.00;;;4.15;;
67065;SDS011;53978;43.846;25.952;2023-01-30T11:16:32;7.75;;;3.80;;
67065;SDS011;53978;43.846;25.952;2023-01-30T11:19:07;6.30;;;3.45;;
67065;SDS011;53978;43.846;25.952;2023-01-30T11:21:32;5.60;;;3.17;;
67065;SDS011;53978;43.846;25.952;2023-01-30T11:24:02;6.20;;;3.03;;
67065;SDS011;53978;43.846;25.952;2023-01-30T11:26:34;7.20;;;4.00;;
67065;SDS011;53978;43.846;25.952;2023-01-30T11:31:48;4.35;;;2.83;;
67065;SDS011;53978;43.846;25.952;2023-01-30T11:34:15;5.80;;;3.47;;
67065;SDS011;53978;43.846;25.952;2023-01-30T11:36:41;5.35;;;3.38;;
67065;SDS011;53978;43.846;25.952;2023-01-30T11:44:29;5.72;;;3.88;;
67065;SDS011;53978;43.846;25.952;2023-01-30T11:47:03;6.65;;;3.53;;
67065;SDS011;53978;43.846;25.952;2023-01-30T11:49:38;3.85;;;2.95;;
67065;SDS011;53978;43.846;25.952;2023-01-30T11:52:07;6.88;;;3.15;;
67065;SDS011;53978;43.846;25.952;2023-01-30T11:54:33;6.65;;;3.35;;
67065;SDS011;53978;43.846;25.952;2023-01-30T11:57:02;5.80;;;2.90;;
67065;SDS011;53978;43.846;25.952;2023-01-30T11:59:30;6.13;;;3.50;;
67065;SDS011;53978;43.846;25.952;2023-01-30T12:02:13;6.07;;;3.92;;
67065;SDS011;53978;43.846;25.952;2023-01-30T12:04:43;4.68;;;3.20;;
67065;SDS011;53978;43.846;25.952;2023-01-30T12:07:21;4.95;;;3.72;;
67065;SDS011;53978;43.846;25.952;2023-01-30T12:09:48;6.03;;;3.53;;
67065;SDS011;53978;43.846;25.952;2023-01-30T12:14:52;4.50;;;2.83;;
67065;SDS011;53978;43.846;25.952;2023-01-30T12:17:22;5.32;;;3.42;;
67065;SDS011;53978;43.846;25.952;2023-01-30T12:22:54;6.03;;;3.25;;
67065;SDS011;53978;43.846;25.952;2023-01-30T12:28:38;6.75;;;3.38;;
67065;SDS011;53978;43.846;25.952;2023-01-30T12:32:26;6.57;;;3.28;;
67065;SDS011;53978;43.846;25.952;2023-01-30T12:34:29;4.72;;;2.97;;
67065;SDS011;53978;43.846;25.952;2023-01-30T12:42:25;5.97;;;3.67;;
67065;SDS011;53978;43.846;25.952;2023-01-30T12:47:47;6.47;;;3.45;;
67065;SDS011;53978;43.846;25.952;2023-01-30T12:50:26;8.75;;;3.88;;
67065;SDS011;53978;43.846;25.952;2023-01-30T12:58:53;10.27;;;4.63;;
67065;SDS011;53978;43.846;25.952;2023-01-30T13:01:34;6.10;;;3.95;;
67065;SDS011;53978;43.846;25.952;2023-01-30T13:07:50;7.13;;;4.13;;
67065;SDS011;53978;43.846;25.952;2023-01-30T13:10:25;6.43;;;3.85;;
67065;SDS011;53978;43.846;25.952;2023-01-30T13:13:41;6.63;;;3.85;;
67065;SDS011;53978;43.846;25.952;2023-01-30T13:16:12;8.80;;;4.63;;
67065;SDS011;53978;43.846;25.952;2023-01-30T13:19:02;9.05;;;4.63;;
67065;SDS011;53978;43.846;25.952;2023-01-30T13:26:48;9.13;;;4.85;;
67065;SDS011;53978;43.846;25.952;2023-01-30T13:29:57;9.93;;;4.65;;
67065;SDS011;53978;43.846;25.952;2023-01-30T13:32:04;7.80;;;4.47;;
67065;SDS011;53978;43.846;25.952;2023-01-30T13:34:39;7.07;;;4.72;;
67065;SDS011;53978;43.846;25.952;2023-01-30T13:37:12;10.43;;;4.63;;
67065;SDS011;53978;43.846;25.952;2023-01-30T13:39:43;8.73;;;4.47;;
67065;SDS011;53978;43.846;25.952;2023-01-30T13:45:23;8.05;;;3.80;;
67065;SDS011;53978;43.846;25.952;2023-01-30T13:56:36;5.25;;;3.28;;
67065;SDS011;53978;43.846;25.952;2023-01-30T13:59:13;8.93;;;4.07;;
67065;SDS011;53978;43.846;25.952;2023-01-30T14:12:29;8.85;;;4.55;;
67065;SDS011;53978;43.846;25.952;2023-01-30T14:15:18;7.47;;;4.22;;
67065;SDS011;53978;43.846;25.952;2023-01-30T14:17:57;10.98;;;4.85;;
67065;SDS011;53978;43.846;25.952;2023-01-30T14:20:33;14.23;;;5.13;;
67065;SDS011;53978;43.846;25.952;2023-01-30T14:23:31;14.55;;;6.78;;
67065;SDS011;53978;43.846;25.952;2023-01-30T14:25:57;13.35;;;5.68;;
67065;SDS011;53978;43.846;25.952;2023-01-30T14:31:00;13.68;;;6.47;;
67065;SDS011;53978;43.846;25.952;2023-01-30T14:38:27;19.05;;;6.97;;
67065;SDS011;53978;43.846;25.952;2023-01-30T14:43:26;14.45;;;5.88;;
67065;SDS011;53978;43.846;25.952;2023-01-30T14:45:58;17.10;;;6.43;;
67065;SDS011;53978;43.846;25.952;2023-01-30T14:59:15;15.68;;;6.55;;
67065;SDS011;53978;43.846;25.952;2023-01-30T15:04:45;16.13;;;7.00;;
67065;SDS011;53978;43.846;25.952;2023-01-30T15:07:31;14.80;;;7.25;;
67065;SDS011;53978;43.846;25.952;2023-01-30T15:21:32;15.00;;;7.18;;
67065;SDS011;53978;43.846;25.952;2023-01-30T15:32:22;11.25;;;5.38;;
67065;SDS011;53978;43.846;25.952;2023-01-30T15:40:09;11.55;;;5.78;;
67065;SDS011;53978;43.846;25.952;2023-01-30T15:47:56;18.55;;;5.95;;
67065;SDS011;53978;43.846;25.952;2023-01-30T15:50:47;10.52;;;4.72;;
67065;SDS011;53978;43.846;25.952;2023-01-30T15:53:13;15.57;;;6.25;;
67065;SDS011;53978;43.846;25.952;2023-01-30T15:55:40;14.00;;;6.32;;
67065;SDS011;53978;43.846;25.952;2023-01-30T15:58:11;13.75;;;6.88;;
67065;SDS011;53978;43.846;25.952;2023-01-30T16:00:45;17.00;;;6.65;;
67065;SDS011;53978;43.846;25.952;2023-01-30T16:03:14;13.80;;;6.18;;
67065;SDS011;53978;43.846;25.952;2023-01-30T16:05:50;18.73;;;7.45;;
67065;SDS011;53978;43.846;25.952;2023-01-30T16:08:34;23.58;;;10.57;;
67065;SDS011;53978;43.846;25.952;2023-01-30T16:11:00;24.92;;;12.30;;
67065;SDS011;53978;43.846;25.952;2023-01-30T16:13:27;23.58;;;11.70;;
67065;SDS011;53978;43.846;25.952;2023-01-30T16:15:54;25.77;;;10.85;;
67065;SDS011;53978;43.846;25.952;2023-01-30T16:21:18;20.00;;;9.00;;
67065;SDS011;53978;43.846;25.952;2023-01-30T16:23:52;17.73;;;7.55;;
67065;SDS011;53978;43.846;25.952;2023-01-30T16:26:20;13.68;;;7.25;;
67065;SDS011;53978;43.846;25.952;2023-01-30T16:28:48;16.00;;;7.38;;
67065;SDS011;53978;43.846;25.952;2023-01-30T16:31:15;17.13;;;7.13;;
67065;SDS011;53978;43.846;25.952;2023-01-30T16:33:41;19.25;;;8.05;;
67065;SDS011;53978;43.846;25.952;2023-01-30T16:38:45;16.15;;;7.63;;
67065;SDS011;53978;43.846;25.952;2023-01-30T16:44:06;19.98;;;7.80;;
67065;SDS011;53978;43.846;25.952;2023-01-30T16:46:48;16.48;;;7.35;;
67065;SDS011;53978;43.846;25.952;2023-01-30T16:52:02;10.27;;;5.05;;
67065;SDS011;53978;43.846;25.952;2023-01-30T16:54:46;13.75;;;5.45;;
67065;SDS011;53978;43.846;25.952;2023-01-30T17:00:33;10.63;;;5.30;;
67065;SDS011;53978;43.846;25.952;2023-01-30T17:03:04;9.40;;;5.38;;
67065;SDS011;53978;43.846;25.952;2023-01-30T17:05:43;13.32;;;5.32;;
67065;SDS011;53978;43.846;25.952;2023-01-30T17:10:57;10.50;;;5.05;;
67065;SDS011;53978;43.846;25.952;2023-01-30T17:13:31;13.05;;;6.43;;
67065;SDS011;53978;43.846;25.952;2023-01-30T17:18:47;10.70;;;5.45;;
67065;SDS011;53978;43.846;25.952;2023-01-30T17:21:17;14.18;;;5.80;;
67065;SDS011;53978;43.846;25.952;2023-01-30T17:23:53;10.05;;;5.65;;
67065;SDS011;53978;43.846;25.952;2023-01-30T17:26:26;10.43;;;5.30;;
67065;SDS011;53978;43.846;25.952;2023-01-30T17:28:52;9.95;;;4.57;;
67065;SDS011;53978;43.846;25.952;2023-01-30T17:31:17;14.45;;;4.70;;
67065;SDS011;53978;43.846;25.952;2023-01-30T17:33:44;9.93;;;5.28;;
67065;SDS011;53978;43.846;25.952;2023-01-30T17:36:12;11.10;;;5.50;;
67065;SDS011;53978;43.846;25.952;2023-01-30T17:38:39;11.85;;;5.78;;
67065;SDS011;53978;43.846;25.952;2023-01-30T17:41:04;11.35;;;5.45;;
67065;SDS011;53978;43.846;25.952;2023-01-30T17:43:32;8.13;;;4.93;;
67065;SDS011;53978;43.846;25.952;2023-01-30T17:45:57;12.27;;;5.68;;
67065;SDS011;53978;43.846;25.952;2023-01-30T17:48:23;9.70;;;5.25;;
67065;SDS011;53978;43.846;25.952;2023-01-30T17:50:48;9.98;;;5.65;;
67065;SDS011;53978;43.846;25.952;2023-01-30T17:53:13;12.27;;;5.13;;
67065;SDS011;53978;43.846;25.952;2023-01-30T17:55:39;9.98;;;5.10;;
67065;SDS011;53978;43.846;25.952;2023-01-30T17:58:04;12.23;;;5.82;;
67065;SDS011;53978;43.846;25.952;2023-01-30T18:00:30;8.90;;;5.38;;
67065;SDS011;53978;43.846;25.952;2023-01-30T18:02:55;8.65;;;4.88;;
67065;SDS011;53978;43.846;25.952;2023-01-30T18:05:20;9.35;;;5.15;;
67065;SDS011;53978;43.846;25.952;2023-01-30T18:07:46;10.38;;;5.40;;
67065;SDS011;53978;43.846;25.952;2023-01-30T18:10:16;9.40;;;5.28;;